createdAt,value
2018-06-27T00:00:08.558Z,101725.24
2018-06-27T00:02:37.785Z,101728.42
2018-06-27T00:05:07.086Z,101723.13
2018-06-27T00:07:36.191Z,101724.89
2018-06-27T00:10:07.715Z,101726.66
2018-06-27T00:12:36.967Z,101718.00
2018-06-27T00:15:07.060Z,101727.14
2018-06-27T00:17:36.143Z,101723.76
2018-06-27T00:20:07.539Z,101719.75
2018-06-27T00:22:37.362Z,101723.45
2018-06-27T00:25:06.645Z,101719.94
2018-06-27T00:27:36.229Z,101720.31
2018-06-27T00:30:07.072Z,101719.80
2018-06-27T00:32:36.379Z,101719.44
2018-06-27T00:35:05.412Z,101719.03
2018-06-27T00:37:34.530Z,101720.54
2018-06-27T00:40:07.439Z,101716.62
2018-06-27T00:42:36.409Z,101715.22
2018-06-27T00:45:06.653Z,101715.06
2018-06-27T00:47:35.928Z,101716.25
2018-06-27T00:50:08.492Z,101617.19
2018-06-27T00:52:37.506Z,101708.66
2018-06-27T00:55:07.033Z,101707.91
2018-06-27T00:57:36.410Z,101711.52
2018-06-27T01:00:09.127Z,101700.58
2018-06-27T01:02:38.195Z,101707.05
2018-06-27T01:05:07.343Z,101705.69
2018-06-27T01:07:36.818Z,101701.97
2018-06-27T01:10:08.284Z,101696.80
2018-06-27T01:12:37.658Z,101704.22
2018-06-27T01:15:07.575Z,101704.58
2018-06-27T01:17:37.180Z,101702.83
2018-06-27T01:20:08.212Z,101707.36
2018-06-27T01:22:37.340Z,101711.09
2018-06-27T01:25:06.645Z,101717.35
2018-06-27T01:27:35.753Z,101714.36
2018-06-27T01:30:08.087Z,101726.20
2018-06-27T01:32:37.117Z,101723.77
2018-06-27T01:35:06.307Z,101726.67
2018-06-27T01:37:35.386Z,101725.80
2018-06-27T01:40:09.333Z,101733.84
2018-06-27T01:42:38.680Z,101731.01
2018-06-27T01:45:07.754Z,101734.73
2018-06-27T01:47:36.743Z,101733.77
2018-06-27T01:50:07.709Z,101740.66
2018-06-27T01:52:36.824Z,101734.80
2018-06-27T01:55:06.340Z,101737.39
2018-06-27T01:57:35.485Z,101741.98
2018-06-27T02:00:08.727Z,101743.24
2018-06-27T02:02:38.003Z,101749.47
2018-06-27T02:05:07.060Z,101749.34
2018-06-27T02:07:36.020Z,101749.62
2018-06-27T02:10:08.251Z,101751.70
2018-06-27T02:12:37.373Z,101748.92
2018-06-27T02:15:07.023Z,101754.83
2018-06-27T02:17:36.191Z,101747.00
2018-06-27T02:20:08.200Z,101749.89
2018-06-27T02:22:37.321Z,101739.82
2018-06-27T02:25:06.438Z,101743.94
2018-06-27T02:27:35.577Z,101744.17
2018-06-27T02:30:07.884Z,101744.15
2018-06-27T02:32:37.199Z,101750.41
2018-06-27T02:35:06.513Z,101747.28
2018-06-27T02:37:35.815Z,101751.73
2018-06-27T02:40:08.456Z,101756.67
2018-06-27T02:42:37.396Z,101757.81
2018-06-27T02:45:06.600Z,101755.15
2018-06-27T02:47:35.530Z,101754.48
2018-06-27T02:50:07.818Z,101747.44
2018-06-27T02:52:36.926Z,101757.50
2018-06-27T02:55:06.473Z,101761.02
2018-06-27T02:57:35.706Z,101761.97
2018-06-27T03:00:08.555Z,101768.19
2018-06-27T03:02:37.835Z,101765.45
2018-06-27T03:05:06.872Z,101764.59
2018-06-27T03:07:36.015Z,101769.98
2018-06-27T03:10:08.145Z,101765.96
2018-06-27T03:12:37.479Z,101767.24
2018-06-27T03:15:07.880Z,101769.36
2018-06-27T03:17:37.710Z,101771.67
2018-06-27T03:20:08.222Z,101773.98
2018-06-27T03:22:37.316Z,101779.96
2018-06-27T03:25:06.405Z,101779.69
2018-06-27T03:27:35.537Z,101774.05
2018-06-27T03:30:09.235Z,101774.64
2018-06-27T03:32:38.756Z,101776.56
2018-06-27T03:35:07.994Z,101776.41
2018-06-27T03:37:37.113Z,101771.75
2018-06-27T03:40:07.931Z,101768.97
2018-06-27T03:42:37.740Z,101764.70
2018-06-27T03:45:08.204Z,101775.55
2018-06-27T03:47:37.287Z,101775.90
2018-06-27T03:50:08.379Z,101773.23
2018-06-27T03:52:43.821Z,101780.28
2018-06-27T03:55:13.044Z,101779.23
2018-06-27T03:57:42.166Z,101787.38
2018-06-27T04:00:11.444Z,101793.13
2018-06-27T04:02:40.990Z,101789.95
2018-06-27T04:05:10.176Z,101784.67
2018-06-27T04:07:39.275Z,101781.86
2018-06-27T04:10:10.569Z,101790.55
2018-06-27T04:12:39.819Z,101798.81
2018-06-27T04:15:09.157Z,101799.39
2018-06-27T04:17:38.611Z,101802.38
2018-06-27T04:20:07.736Z,101807.70
2018-06-27T04:22:37.059Z,101802.69
2018-06-27T04:25:06.073Z,101809.31
2018-06-27T04:27:35.399Z,101797.67
2018-06-27T04:30:07.931Z,101801.08
2018-06-27T04:32:37.170Z,101805.73
2018-06-27T04:35:06.500Z,101811.34
2018-06-27T04:37:36.386Z,101811.14
2018-06-27T04:40:09.657Z,101810.83
2018-06-27T04:42:39.219Z,101812.47
2018-06-27T04:45:08.198Z,101813.17
2018-06-27T04:47:38.390Z,101812.70
2018-06-27T04:50:07.716Z,101809.03
2018-06-27T04:52:36.723Z,101809.52
2018-06-27T04:55:06.127Z,101809.80
2018-06-27T04:57:35.298Z,101806.78
2018-06-27T05:00:08.803Z,101812.70
2018-06-27T05:02:37.737Z,101810.03
2018-06-27T05:05:07.002Z,101809.91
2018-06-27T05:07:36.150Z,101810.50
2018-06-27T05:10:08.075Z,101808.02
2018-06-27T05:12:37.847Z,101803.65
2018-06-27T05:15:06.936Z,101800.66
2018-06-27T05:17:35.939Z,101801.06
2018-06-27T05:20:08.907Z,101794.69
2018-06-27T05:22:38.010Z,101798.95
2018-06-27T05:25:07.112Z,101797.19
2018-06-27T05:27:36.220Z,101795.59
2018-06-27T05:30:08.699Z,101790.83
2018-06-27T05:32:37.755Z,101788.48
2018-06-27T05:35:06.923Z,101792.36
2018-06-27T05:37:36.972Z,101793.85
2018-06-27T05:40:07.364Z,101797.48
2018-06-27T05:42:36.716Z,101799.34
2018-06-27T05:45:06.213Z,101803.70
2018-06-27T05:47:35.191Z,101808.05
2018-06-27T05:50:07.987Z,101805.27
2018-06-27T05:52:37.098Z,101810.55
2018-06-27T05:55:07.564Z,101803.25
2018-06-27T05:57:39.042Z,101806.56
2018-06-27T06:00:09.748Z,101799.50
2018-06-27T06:02:39.866Z,101800.40
2018-06-27T06:05:09.447Z,101801.36
2018-06-27T06:07:38.489Z,101798.98
2018-06-27T06:10:07.720Z,101794.70
2018-06-27T06:12:36.803Z,101801.94
2018-06-27T06:15:06.563Z,101791.84
2018-06-27T06:17:35.807Z,101795.82
2018-06-27T06:20:08.582Z,101799.92
2018-06-27T06:22:37.847Z,101794.54
2018-06-27T06:25:07.331Z,101798.95
2018-06-27T06:27:36.612Z,101791.38
2018-06-27T06:30:08.787Z,101789.83
2018-06-27T06:32:38.037Z,101793.34
2018-06-27T06:35:07.303Z,101791.05
2018-06-27T06:37:37.212Z,101794.61
2018-06-27T06:40:07.784Z,101789.47
2018-06-27T06:42:37.189Z,101785.11
2018-06-27T06:45:06.319Z,101777.86
2018-06-27T06:47:35.255Z,101782.79
2018-06-27T06:50:08.398Z,101786.46
2018-06-27T06:52:37.695Z,101783.45
2018-06-27T06:55:07.007Z,101788.20
2018-06-27T06:57:36.546Z,101792.13
2018-06-27T07:00:09.209Z,101791.23
2018-06-27T07:02:38.303Z,101785.59
2018-06-27T07:05:07.817Z,101782.05
2018-06-27T07:07:36.924Z,101778.66
2018-06-27T07:10:07.311Z,101776.19
2018-06-27T07:12:37.419Z,101775.45
2018-06-27T07:15:06.523Z,101765.58
2018-06-27T07:17:35.785Z,101764.93
2018-06-27T07:20:08.730Z,101775.73
2018-06-27T07:22:37.802Z,101773.38
2018-06-27T07:25:07.160Z,101768.09
2018-06-27T07:27:37.239Z,101769.75
2018-06-27T07:30:09.432Z,101766.95
2018-06-27T07:32:38.491Z,101766.44
2018-06-27T07:35:07.727Z,101756.93
2018-06-27T07:37:37.751Z,101748.83
2018-06-27T07:40:07.556Z,101748.83
2018-06-27T07:42:36.825Z,101754.66
2018-06-27T07:45:05.920Z,101752.33
2018-06-27T07:47:34.895Z,101755.75
2018-06-27T07:50:08.566Z,101751.83
2018-06-27T07:52:37.699Z,101755.72
2018-06-27T07:55:06.879Z,101759.05
2018-06-27T07:57:36.179Z,101757.58
2018-06-27T08:00:10.151Z,101753.69
2018-06-27T08:02:39.105Z,101752.63
2018-06-27T08:05:08.328Z,101750.09
2018-06-27T08:07:37.257Z,101754.75
2018-06-27T08:10:07.525Z,101747.25
2018-06-27T08:12:37.308Z,101749.20
2018-06-27T08:15:07.020Z,101750.12
2018-06-27T08:17:36.384Z,101752.00
2018-06-27T08:20:08.628Z,101742.59
2018-06-27T08:22:38.096Z,101747.30
2018-06-27T08:25:07.409Z,101746.80
2018-06-27T08:27:36.508Z,101731.38
2018-06-27T08:30:07.202Z,101726.74
2018-06-27T08:32:36.493Z,101724.78
2018-06-27T08:35:05.759Z,101721.49
2018-06-27T08:37:35.059Z,101730.26
2018-06-27T08:40:07.400Z,101718.73
2018-06-27T08:42:36.353Z,101718.51
2018-06-27T08:45:05.846Z,101711.44
2018-06-27T08:47:35.105Z,101709.28
2018-06-27T08:50:09.094Z,101696.98
2018-06-27T08:52:38.026Z,101699.41
2018-06-27T08:55:07.365Z,101692.59
2018-06-27T08:57:36.607Z,101698.14
2018-06-27T09:00:07.442Z,101693.98
2018-06-27T09:02:36.574Z,101690.94
2018-06-27T09:05:06.669Z,101691.41
2018-06-27T09:07:35.772Z,101699.42
2018-06-27T09:10:08.030Z,101694.62
2018-06-27T09:12:37.119Z,101689.33
2018-06-27T09:15:06.243Z,101682.97
2018-06-27T09:17:36.479Z,101681.98
2018-06-27T09:20:07.383Z,101679.81
2018-06-27T09:22:36.983Z,101683.52
2018-06-27T09:25:06.216Z,101678.80
2018-06-27T09:27:35.690Z,101673.60
2018-06-27T09:30:08.876Z,101669.77
2018-06-27T09:32:37.831Z,101668.08
2018-06-27T09:35:07.287Z,101665.28
2018-06-27T09:37:36.571Z,101661.80
2018-06-27T09:40:09.132Z,101651.44
2018-06-27T09:42:39.264Z,101643.22
2018-06-27T09:45:08.347Z,101646.05
2018-06-27T09:47:37.462Z,101638.77
2018-06-27T09:50:07.967Z,101651.47
2018-06-27T09:52:37.279Z,101642.80
2018-06-27T09:55:06.471Z,101634.15
2018-06-27T09:57:35.589Z,101636.64
2018-06-27T10:00:12.835Z,101623.55
2018-06-27T10:02:42.053Z,101631.84
2018-06-27T10:05:11.140Z,101621.60
2018-06-27T10:07:40.336Z,101613.03
2018-06-27T10:10:09.651Z,101617.11
2018-06-27T10:12:38.745Z,101604.62
2018-06-27T10:15:08.487Z,101610.97
2018-06-27T10:17:37.543Z,101602.06
2018-06-27T10:20:08.489Z,101596.30
2018-06-27T10:22:37.585Z,101590.67
2018-06-27T10:25:07.127Z,101592.14
2018-06-27T10:27:36.191Z,101591.09
2018-06-27T10:30:08.731Z,101586.80
2018-06-27T10:32:37.767Z,101582.51
2018-06-27T10:35:06.842Z,101584.04
2018-06-27T10:37:35.942Z,101570.68
2018-06-27T10:40:08.986Z,101578.08
2018-06-27T10:42:38.247Z,101566.09
2018-06-27T10:45:07.512Z,101572.08
2018-06-27T10:47:37.238Z,101574.22
2018-06-27T10:50:07.420Z,101556.70
2018-06-27T10:52:37.045Z,101556.73
2018-06-27T10:55:17.731Z,101548.02
2018-06-27T10:57:46.783Z,101547.76
2018-06-27T11:00:15.931Z,101536.05
2018-06-27T11:02:44.900Z,101533.61
2018-06-27T11:05:14.142Z,101540.01
2018-06-27T11:07:44.086Z,101534.40
2018-06-27T11:10:13.502Z,101531.34
2018-06-27T11:12:42.551Z,101532.48
2018-06-27T11:15:11.622Z,101528.52
2018-06-27T11:17:40.727Z,101530.02
2018-06-27T11:20:09.770Z,101526.56
2018-06-27T11:22:38.815Z,101524.67
2018-06-27T11:25:07.780Z,101529.59
2018-06-27T11:27:36.987Z,101523.56
2018-06-27T11:30:07.856Z,101521.45
2018-06-27T11:32:37.027Z,101513.92
2018-06-27T11:35:06.120Z,101488.86
2018-06-27T11:37:35.319Z,101501.68
2018-06-27T11:40:08.113Z,101514.85
2018-06-27T11:42:37.213Z,101508.66
2018-06-27T11:45:06.368Z,101499.53
2018-06-27T11:47:35.613Z,101501.17
2018-06-27T11:50:08.359Z,101496.84
2018-06-27T11:52:37.467Z,101491.88
2018-06-27T11:55:11.666Z,101486.79
2018-06-27T11:57:42.857Z,101485.43
2018-06-27T12:00:12.139Z,101482.66
2018-06-27T12:02:41.935Z,101482.38
2018-06-27T12:05:11.103Z,101481.34
2018-06-27T12:07:40.513Z,101475.48
2018-06-27T12:10:09.559Z,101477.78
2018-06-27T12:12:38.808Z,101477.22
2018-06-27T12:15:07.734Z,101476.20
2018-06-27T12:17:36.708Z,101473.06
2018-06-27T12:20:07.428Z,101472.25
2018-06-27T12:22:36.855Z,101473.49
2018-06-27T12:25:06.035Z,101477.27
2018-06-27T12:27:35.700Z,101473.37
2018-06-27T12:30:17.393Z,101471.70
2018-06-27T12:32:46.699Z,101472.43
2018-06-27T12:35:15.780Z,101463.91
2018-06-27T12:37:44.840Z,101459.56
2018-06-27T12:40:14.017Z,101456.30
2018-06-27T12:42:43.073Z,101444.39
2018-06-27T12:45:12.514Z,101452.09
2018-06-27T12:47:42.464Z,101450.84
2018-06-27T12:50:11.512Z,101451.91
2018-06-27T12:52:40.796Z,101441.52
2018-06-27T12:55:12.160Z,101444.92
2018-06-27T12:57:41.588Z,101443.06
2018-06-27T13:00:11.681Z,101451.98
2018-06-27T13:02:41.160Z,101447.61
2018-06-27T13:05:10.909Z,101454.42
2018-06-27T13:07:40.315Z,101451.69
2018-06-27T13:10:10.185Z,101441.23
2018-06-27T13:12:39.621Z,101442.47
2018-06-27T13:15:08.604Z,101434.80
2018-06-27T13:17:37.556Z,101432.12
2018-06-27T13:20:08.031Z,101426.37
2018-06-27T13:22:37.483Z,101429.34
2018-06-27T13:25:06.741Z,101434.63
2018-06-27T13:27:36.104Z,101434.61
2018-06-27T13:30:08.651Z,101435.66
2018-06-27T13:32:37.582Z,101429.13
2018-06-27T13:35:07.120Z,101414.25
2018-06-27T13:37:36.351Z,101424.81
2018-06-27T13:40:09.601Z,101422.41
2018-06-27T13:42:39.480Z,101423.80
2018-06-27T13:45:08.862Z,101426.09
2018-06-27T13:47:38.052Z,101421.98
2018-06-27T13:50:07.717Z,101418.67
2018-06-27T13:52:36.852Z,101410.77
2018-06-27T13:55:07.031Z,101412.50
2018-06-27T13:57:36.723Z,101417.06
2018-06-27T14:00:07.823Z,101417.20
2018-06-27T14:02:36.901Z,101415.17
2018-06-27T14:05:06.251Z,101416.16
2018-06-27T14:07:35.307Z,101410.34
2018-06-27T14:10:07.447Z,101404.56
2018-06-27T14:12:36.696Z,101407.51
2018-06-27T14:15:06.810Z,101401.07
2018-06-27T14:17:35.931Z,101393.55
2018-06-27T14:20:08.044Z,101402.11
2018-06-27T14:22:37.006Z,101395.99
2018-06-27T14:25:06.383Z,101393.03
2018-06-27T14:27:35.683Z,101392.35
2018-06-27T14:30:09.908Z,101387.42
2018-06-27T14:32:39.446Z,101377.40
2018-06-27T14:35:08.695Z,101379.16
2018-06-27T14:37:37.798Z,101361.09
2018-06-27T14:40:09.196Z,101380.47
2018-06-27T14:42:38.219Z,101377.15
2018-06-27T14:45:08.400Z,101383.24
2018-06-27T14:47:38.095Z,101375.52
2018-06-27T14:50:08.854Z,101384.39
2018-06-27T14:52:38.324Z,101372.36
2018-06-27T14:55:09.287Z,101364.86
2018-06-27T14:57:38.951Z,101364.78
2018-06-27T15:00:10.119Z,101361.61
2018-06-27T15:02:39.395Z,101367.16
2018-06-27T15:05:08.486Z,101358.67
2018-06-27T15:07:37.587Z,101358.34
2018-06-27T15:10:08.955Z,101359.66
2018-06-27T15:12:38.214Z,101356.24
2018-06-27T15:15:08.387Z,101358.08
2018-06-27T15:17:37.544Z,101357.41
2018-06-27T15:20:08.792Z,101354.14
2018-06-27T15:22:37.944Z,101347.55
2018-06-27T15:25:07.010Z,101348.66
2018-06-27T15:27:36.418Z,101337.62
2018-06-27T15:30:09.912Z,101344.65
2018-06-27T15:32:39.120Z,101338.58
2018-06-27T15:35:08.084Z,101338.02
2018-06-27T15:37:37.179Z,101339.16
2018-06-27T15:40:07.925Z,101338.13
2018-06-27T15:42:37.256Z,101333.75
2018-06-27T15:45:06.733Z,101339.20
2018-06-27T15:47:36.183Z,101332.39
2018-06-27T15:50:07.090Z,101336.19
2018-06-27T15:52:36.791Z,101334.31
2018-06-27T15:55:06.487Z,101332.18
2018-06-27T15:57:35.740Z,101332.28
2018-06-27T16:00:09.254Z,101329.86
2018-06-27T16:02:39.516Z,101324.48
2018-06-27T16:05:08.807Z,101328.57
2018-06-27T16:07:38.094Z,101331.22
2018-06-27T16:10:08.908Z,101331.69
2018-06-27T16:12:38.159Z,101321.72
2018-06-27T16:15:07.467Z,101327.66
2018-06-27T16:17:37.227Z,101330.45
2018-06-27T16:20:10.451Z,101336.28
2018-06-27T16:22:39.989Z,101330.00
2018-06-27T16:25:08.980Z,101334.00
2018-06-27T16:27:38.172Z,101329.13
2018-06-27T16:30:09.083Z,101331.36
2018-06-27T16:32:38.283Z,101334.45
2018-06-27T16:35:07.547Z,101332.88
2018-06-27T16:37:36.682Z,101329.70
2018-06-27T16:40:10.060Z,101334.44
2018-06-27T16:42:39.215Z,101335.52
2018-06-27T16:45:08.713Z,101340.94
2018-06-27T16:47:37.975Z,101336.11
2018-06-27T16:50:11.097Z,101336.50
2018-06-27T16:52:40.335Z,101337.39
2018-06-27T16:55:09.651Z,101335.89
2018-06-27T16:57:38.999Z,101339.88
2018-06-27T17:00:10.402Z,101334.48
2018-06-27T17:02:39.382Z,101331.55
2018-06-27T17:05:09.244Z,101344.23
2018-06-27T17:07:38.552Z,101336.06
2018-06-27T17:10:09.454Z,101337.97
2018-06-27T17:12:38.517Z,101333.05
2018-06-27T17:15:08.236Z,101338.48
2018-06-27T17:17:37.961Z,101341.88
2018-06-27T17:20:09.207Z,101339.84
2018-06-27T17:22:38.703Z,101342.64
2018-06-27T17:25:08.211Z,101342.17
2018-06-27T17:27:37.570Z,101344.59
2018-06-27T17:30:10.528Z,101342.08
2018-06-27T17:32:39.571Z,101339.79
2018-06-27T17:35:09.043Z,101348.79
2018-06-27T17:37:38.207Z,101350.15
2018-06-27T17:40:08.564Z,101349.86
2018-06-27T17:42:37.700Z,101349.54
2018-06-27T17:45:07.005Z,101355.75
2018-06-27T17:47:36.131Z,101362.34
2018-06-27T17:50:09.055Z,101359.77
2018-06-27T17:52:38.209Z,101362.55
2018-06-27T17:55:08.495Z,101371.30
2018-06-27T17:57:37.762Z,101375.74
2018-06-27T18:00:10.971Z,101381.39
2018-06-27T18:02:40.408Z,101381.36
2018-06-27T18:05:09.846Z,101382.13
2018-06-27T18:07:39.201Z,101386.95
2018-06-27T18:10:12.500Z,101387.27
2018-06-27T18:12:42.141Z,101386.77
2018-06-27T18:15:11.239Z,101385.41
2018-06-27T18:17:40.191Z,101390.14
2018-06-27T18:20:13.424Z,101392.48
2018-06-27T18:22:43.365Z,101393.30
2018-06-27T18:25:12.871Z,101396.47
2018-06-27T18:27:41.910Z,101393.91
2018-06-27T18:30:13.355Z,101392.48
2018-06-27T18:32:42.664Z,101393.99
2018-06-27T18:35:11.851Z,101394.75
2018-06-27T18:37:41.096Z,101392.88
2018-06-27T18:40:13.271Z,101392.14
2018-06-27T18:42:42.238Z,101395.70
2018-06-27T18:45:11.460Z,101399.27
2018-06-27T18:47:40.489Z,101399.06
2018-06-27T18:50:11.938Z,101402.66
2018-06-27T18:52:41.451Z,101408.38
2018-06-27T18:55:10.457Z,101407.22
2018-06-27T18:57:39.571Z,101405.15
2018-06-27T19:07:12.001Z,101406.41
2018-06-27T19:09:41.301Z,101404.95
2018-06-27T19:12:10.879Z,101417.48
2018-06-27T19:14:39.844Z,101414.56
2018-06-27T19:17:08.849Z,101414.46
2018-06-27T19:19:37.878Z,101417.37
2018-06-27T19:22:06.983Z,101413.73
2018-06-27T19:24:36.663Z,101415.61
2018-06-27T19:27:06.324Z,101419.35
2018-06-27T19:29:35.292Z,101424.78
2018-06-27T19:32:04.662Z,101425.88
2018-06-27T19:34:34.938Z,101429.64
2018-06-27T19:37:03.967Z,101435.66
2018-06-27T19:39:37.463Z,101435.46
2018-06-27T19:42:02.892Z,101438.34
2018-06-27T19:44:32.415Z,101438.11
2018-06-27T19:47:02.106Z,101452.88
2018-06-27T19:49:31.036Z,101456.69
2018-06-27T19:52:00.412Z,101457.33
2018-06-27T19:54:29.684Z,101456.30
2018-06-27T19:56:59.004Z,101460.55
2018-06-27T19:59:28.537Z,101463.19
2018-06-27T20:01:57.863Z,101464.54
2018-06-27T20:04:27.127Z,101469.08
2018-06-27T20:06:56.421Z,101477.84
2018-06-27T20:09:25.609Z,101476.05
2018-06-27T20:11:56.524Z,101480.04
2018-06-27T20:14:25.995Z,101480.87
2018-06-27T20:16:55.454Z,101490.70
2018-06-27T20:19:24.814Z,101487.37
2018-06-27T20:21:53.995Z,101489.09
2018-06-27T20:24:23.259Z,101487.79
2018-06-27T20:26:52.635Z,101496.63
2018-06-27T20:29:21.636Z,101496.66
2018-06-27T20:31:50.982Z,101502.69
2018-06-27T20:34:20.299Z,101503.34
2018-06-27T20:36:49.384Z,101502.42
2018-06-27T20:39:18.525Z,101502.95
2018-06-27T20:41:47.888Z,101482.61
2018-06-27T20:44:17.868Z,101504.45
2018-06-27T20:46:47.051Z,101502.60
2018-06-27T20:49:16.177Z,101497.16
2018-06-27T20:51:45.255Z,101501.00
2018-06-27T20:54:14.431Z,101505.95
2018-06-27T20:56:43.371Z,101508.31
2018-06-27T20:59:12.616Z,101505.06
2018-06-27T21:01:41.684Z,101510.00
2018-06-27T21:04:11.863Z,101504.37
2018-06-27T21:06:41.087Z,101511.57
2018-06-27T21:09:11.147Z,101509.81
2018-06-27T21:11:40.244Z,101505.85
2018-06-27T21:14:09.241Z,101514.23
2018-06-27T21:16:38.211Z,101514.13
2018-06-27T21:19:07.287Z,101518.59
2018-06-27T21:21:37.063Z,101522.23
2018-06-27T21:24:06.333Z,101516.59
2018-06-27T21:26:35.481Z,101518.64
2018-06-27T21:29:05.040Z,101519.48
2018-06-27T21:31:35.410Z,101526.33
2018-06-27T21:34:04.627Z,101528.20
2018-06-27T21:36:33.661Z,101527.03
2018-06-27T21:39:02.780Z,101528.08
2018-06-27T21:41:32.100Z,101533.00
2018-06-27T21:44:01.171Z,101539.23
2018-06-27T21:46:30.825Z,101537.53
2018-06-27T21:49:00.159Z,101536.25
2018-06-27T21:51:30.586Z,101546.38
2018-06-27T21:54:00.095Z,101548.37
2018-06-27T21:56:29.131Z,101557.64
2018-06-27T21:58:58.358Z,101557.67
2018-06-27T22:01:28.246Z,101558.67
2018-06-27T22:03:57.748Z,101564.39
2018-06-27T22:06:27.241Z,101561.70
2018-06-27T22:08:57.627Z,101562.53
2018-06-27T22:11:27.012Z,101562.38
2018-06-27T22:13:55.936Z,101567.59
2018-06-27T22:16:25.433Z,101568.11
2018-06-27T22:18:54.520Z,101570.30
2018-06-27T22:21:23.830Z,101572.30
2018-06-27T22:23:52.950Z,101568.44
2018-06-27T22:26:22.203Z,101571.97
2018-06-27T22:28:51.493Z,101573.30
2018-06-27T22:31:20.644Z,101568.77
2018-06-27T22:33:50.384Z,101573.45
2018-06-27T22:36:19.797Z,101571.27
2018-06-27T22:38:49.262Z,101573.30
2018-06-27T22:41:18.529Z,101569.59
2018-06-27T22:43:47.451Z,101570.42
2018-06-27T22:46:16.508Z,101570.95
2018-06-27T22:48:45.673Z,101570.75
2018-06-27T22:51:14.864Z,101575.98
2018-06-27T22:53:43.774Z,101571.77
2018-06-27T22:56:12.707Z,101573.95
2018-06-27T22:58:42.103Z,101575.42
2018-06-27T23:01:11.683Z,101578.44
2018-06-27T23:03:40.944Z,101574.91
2018-06-27T23:06:10.547Z,101578.53
2018-06-27T23:08:40.148Z,101579.13
2018-06-27T23:11:09.451Z,101582.41
2018-06-27T23:13:38.686Z,101578.52
2018-06-27T23:16:08.291Z,101585.77
2018-06-27T23:18:37.522Z,101577.97
2018-06-27T23:21:06.638Z,101578.61
2018-06-27T23:23:36.116Z,101582.09
2018-06-27T23:26:05.388Z,101577.88
2018-06-27T23:28:34.571Z,101580.23
2018-06-27T23:31:03.516Z,101584.89
2018-06-27T23:33:34.439Z,101588.69
2018-06-27T23:36:03.764Z,101585.82
2018-06-27T23:38:33.083Z,101586.59
2018-06-27T23:41:02.506Z,101585.93
2018-06-27T23:43:32.410Z,101587.47
2018-06-27T23:46:01.569Z,101585.79
2018-06-27T23:48:30.673Z,101584.65
2018-06-27T23:51:00.020Z,101576.41
2018-06-27T23:53:29.852Z,101584.41
2018-06-27T23:55:59.047Z,101577.80
2018-06-27T23:58:29.931Z,101574.60
